EDLW/DTM METAR and TAF weather

Enter ICAO airport designator
Station Type Date Time Source
EDLW METAR 2021/03/06 02:20 UTC NOAA

EDLW 060220Z AUTO 15007KT 9999 // NCD M03/M05 Q1033


Station Type Date Time Source
EDLW Decoded METAR 2021/03/06 02:20 UTC NOAA

Dortmund / Wickede, Germany (EDLW) 51-31N 007-37E
Mar 05, 2021 - 09:20 PM EST / 2021.03.06 0220 UTC
Wind: from the SSE (150 degrees) at 8 MPH (7 KT):0
Visibility: greater than 7 mile(s):0
Temperature: 26 F (-3 C)
Windchill: 17 F (-8 C):1
Dew Point: 23 F (-5 C)
Relative Humidity: 86%
Pressure (altimeter): 30.50 in. Hg (1033 hPa)
ob: EDLW 060220Z AUTO 15007KT 9999 // NCD M03/M05 Q1033
cycle: 2

Station Type Date Time Source
EDLW TAF 2021/03/05 22:30 UTC NOAA

TAF EDLW 052220Z 0522/0618 CNL

Example: see airport list